ENTO/TRF METAR and TAF weather

Enter ICAO airport designator
Station Type Date Time Source
ENTO METAR 2018/12/12 17:20 UTC NOAA

ENTO 121720Z 01006KT 9999 SCT010 M06/M08 Q1033


Station Type Date Time Source
ENTO Decoded METAR 2018/12/12 17:20 UTC NOAA

Torp, Norway (ENTO) 59-12N 010-16E 88M
Dec 12, 2018 - 12:20 PM EST / 2018.12.12 1720 UTC
Wind: from the N (010 degrees) at 7 MPH (6 KT):0
Visibility: greater than 7 mile(s):0
Sky conditions: partly cloudy
Temperature: 21 F (-6 C)
Windchill: 12 F (-11 C):1
Dew Point: 17 F (-8 C)
Relative Humidity: 85%
Pressure (altimeter): 30.50 in. Hg (1033 hPa)
ob: ENTO 121720Z 01006KT 9999 SCT010 M06/M08 Q1033
cycle: 17

Station Type Date Time Source
ENTO TAF 2018/12/12 12:58 UTC NOAA

TAF ENTO 121100Z 1212/1312 01007KT 9999 FEW020 PROB40
TEMPO 1218/1306 BKN012


Example: see airport list